Time;durP1;ratioP1;P1;durP2;ratioP2;P2;SDS_P1;SDS_P2;PMS_P1;PMS_P2;Temp;Humidity;BMP_temperature;BMP_pressure;BME280_temperature;BME280_humidity;BME280_pressure;Samples;Min_cycle;Max_cycle;Signal;HPM_P1;HPM_P2
2023/08/23 00:02:13;;;;;;;13.25;4.43;;;;;;;14.99;100.00;101884.41;5039267;28;20029;-85
2023/08/23 00:04:39;;;;;;;16.08;4.85;;;;;;;14.99;100.00;101889.81;5019828;28;20021;-84
2023/08/23 00:07:04;;;;;;;13.82;4.82;;;;;;;15.00;100.00;101877.16;5016377;28;20080;-84
2023/08/23 00:09:30;;;;;;;15.38;4.60;;;;;;;14.99;100.00;101881.69;5038066;28;20109;-83
2023/08/23 00:11:55;;;;;;;17.92;5.18;;;;;;;14.95;100.00;101882.03;5030740;28;20043;-84
2023/08/23 00:14:21;;;;;;;12.52;4.18;;;;;;;14.92;100.00;101883.16;5032537;28;20526;-81
2023/08/23 00:16:46;;;;;;;9.18;3.50;;;;;;;14.89;100.00;101877.97;5030701;28;20792;-83
2023/08/23 00:19:11;;;;;;;17.60;4.07;;;;;;;14.87;100.00;101871.78;5025825;28;20152;-83
2023/08/23 00:21:36;;;;;;;14.90;4.32;;;;;;;14.84;100.00;101875.59;5024408;28;20106;-84
2023/08/23 00:24:02;;;;;;;15.00;4.28;;;;;;;14.85;100.00;101871.06;5025231;28;20071;-83
2023/08/23 00:26:28;;;;;;;13.45;3.88;;;;;;;14.87;100.00;101871.78;5009401;28;20363;-83
2023/08/23 00:28:53;;;;;;;11.18;3.63;;;;;;;14.87;100.00;101881.75;5029264;28;20108;-83
2023/08/23 00:31:18;;;;;;;14.27;4.25;;;;;;;14.80;100.00;101870.50;5020745;28;20025;-83
2023/08/23 00:33:44;;;;;;;10.13;4.20;;;;;;;14.76;100.00;101867.19;5017809;28;20041;-83
2023/08/23 00:36:09;;;;;;;19.00;4.20;;;;;;;14.72;100.00;101860.28;5030334;28;20108;-83
2023/08/23 00:38:34;;;;;;;12.82;4.15;;;;;;;14.71;100.00;101852.28;5014784;28;20033;-83
2023/08/23 00:41:00;;;;;;;16.10;4.80;;;;;;;14.70;100.00;101850.53;5027483;28;20398;-84
2023/08/23 00:43:25;;;;;;;14.93;4.20;;;;;;;14.70;100.00;101855.94;5016599;28;20357;-83
2023/08/23 00:45:51;;;;;;;13.55;4.18;;;;;;;14.66;100.00;101848.06;5018279;28;20191;-81
2023/08/23 00:48:16;;;;;;;13.02;4.03;;;;;;;14.64;100.00;101841.91;5019133;28;20047;-83
2023/08/23 00:50:43;;;;;;;10.70;3.50;;;;;;;14.61;100.00;101838.53;5017375;28;20030;-83
2023/08/23 00:53:10;;;;;;;12.32;3.95;;;;;;;14.59;100.00;101841.34;5013112;28;20059;-81
2023/08/23 00:55:36;;;;;;;10.07;3.80;;;;;;;14.60;100.00;101843.09;5041013;28;20039;-84
2023/08/23 00:58:02;;;;;;;13.40;3.58;;;;;;;14.59;100.00;101841.34;5014007;28;20025;-82
2023/08/23 01:00:30;;;;;;;15.45;4.40;;;;;;;14.57;100.00;101846.03;5016012;28;20048;-83
2023/08/23 01:02:56;;;;;;;12.55;3.88;;;;;;;14.57;100.00;101839.72;5030193;28;20503;-83
2023/08/23 01:05:37;;;;;;;12.07;3.97;;;;;;;14.54;100.00;101835.44;5015628;28;20132;-81
2023/08/23 01:08:11;;;;;;;10.25;3.60;;;;;;;14.52;100.00;101840.06;5032936;28;20091;-82
2023/08/23 01:11:12;;;;;;;13.45;4.15;;;;;;;14.56;100.00;101838.88;5012584;28;20040;-83
2023/08/23 01:13:53;;;;;;;12.60;4.10;;;;;;;14.58;100.00;101849.59;5043018;28;20095;-84
2023/08/23 01:16:20;;;;;;;11.40;4.03;;;;;;;14.55;100.00;101845.25;5014782;28;20033;-84
2023/08/23 01:18:46;;;;;;;12.40;3.97;;;;;;;14.54;100.00;101848.97;5034834;28;20059;-80
2023/08/23 01:21:18;;;;;;;12.75;4.22;;;;;;;14.50;100.00;101844.75;5007795;28;20508;-80
2023/08/23 01:23:44;;;;;;;12.07;4.25;;;;;;;14.46;100.00;101848.66;5016973;28;20021;-80
2023/08/23 01:26:10;;;;;;;12.35;3.67;;;;;;;14.41;100.00;101858.97;5010983;28;20492;-79
2023/08/23 01:28:35;;;;;;;12.82;3.95;;;;;;;14.38;100.00;101851.94;5012626;28;20033;-79
2023/08/23 01:31:06;;;;;;;13.10;4.18;;;;;;;14.39;100.00;101852.78;5017883;28;20018;-80
2023/08/23 01:33:39;;;;;;;13.02;4.43;;;;;;;14.38;100.00;101853.75;5009099;28;20026;-80
2023/08/23 01:36:21;;;;;;;11.57;4.05;;;;;;;14.39;100.00;101858.19;5013762;28;20721;-79
2023/08/23 01:38:48;;;;;;;12.90;4.22;;;;;;;14.35;100.00;101852.16;5010958;28;20033;-80
2023/08/23 01:41:15;;;;;;;14.73;4.43;;;;;;;14.34;100.00;101848.56;5012974;28;20026;-80
2023/08/23 01:43:40;;;;;;;14.75;4.70;;;;;;;14.33;100.00;101844.16;5009266;28;20030;-80
2023/08/23 01:46:06;;;;;;;10.52;3.92;;;;;;;14.33;100.00;101833.34;5008703;28;20022;-80
2023/08/23 01:48:31;;;;;;;13.52;4.22;;;;;;;14.31;100.00;101835.28;5037066;28;20405;-80
2023/08/23 01:50:56;;;;;;;12.65;4.15;;;;;;;14.29;100.00;101837.25;5010943;28;20049;-79
2023/08/23 01:53:22;;;;;;;13.70;4.32;;;;;;;14.26;100.00;101832.06;5026588;28;20038;-80
2023/08/23 01:55:47;;;;;;;13.35;4.20;;;;;;;14.22;100.00;101843.22;5022596;28;20187;-79
2023/08/23 01:58:13;;;;;;;9.82;3.63;;;;;;;14.22;100.00;101843.22;5028463;28;20048;-79
2023/08/23 02:00:38;;;;;;;12.00;3.92;;;;;;;14.22;100.00;101840.53;5027072;28;20032;-79
2023/08/23 02:03:04;;;;;;;10.82;3.60;;;;;;;14.20;100.00;101845.16;5020987;28;20045;-79
2023/08/23 02:05:30;;;;;;;13.32;4.22;;;;;;;14.16;100.00;101844.53;5045740;28;20033;-79
2023/08/23 02:07:55;;;;;;;11.40;4.45;;;;;;;14.12;100.00;101834.91;5025342;28;20417;-79
2023/08/23 02:10:21;;;;;;;13.68;4.32;;;;;;;14.07;100.00;101834.38;5030612;28;20052;-80
2023/08/23 02:12:46;;;;;;;11.02;4.03;;;;;;;14.01;100.00;101837.50;5026294;28;20049;-79
2023/08/23 02:15:11;;;;;;;15.45;4.45;;;;;;;13.96;100.00;101836.00;5028439;28;20089;-80
2023/08/23 02:17:37;;;;;;;8.93;3.75;;;;;;;13.95;100.00;101841.53;5029255;28;20026;-79
2023/08/23 02:20:02;;;;;;;15.32;4.07;;;;;;;13.90;100.00;101838.31;5028556;28;20166;-79
2023/08/23 02:22:28;;;;;;;12.10;3.95;;;;;;;13.84;100.00;101847.72;5035623;28;20024;-79
2023/08/23 02:24:53;;;;;;;11.48;3.78;;;;;;;13.79;100.00;101841.75;5030847;28;20446;-79
2023/08/23 02:27:18;;;;;;;11.85;3.80;;;;;;;13.76;100.00;101839.28;5031258;28;20026;-84
2023/08/23 02:29:44;;;;;;;11.18;3.97;;;;;;;13.73;100.00;101831.38;5023979;28;20033;-84
2023/08/23 02:32:09;;;;;;;15.75;4.50;;;;;;;13.69;100.00;101829.88;5027059;28;20499;-84
2023/08/23 02:34:34;;;;;;;10.52;3.88;;;;;;;13.70;100.00;101834.31;5030440;28;20042;-83
2023/08/23 02:37:00;;;;;;;13.40;4.28;;;;;;;13.67;100.00;101838.09;5028146;28;20499;-84
2023/08/23 02:39:25;;;;;;;13.98;4.28;;;;;;;13.67;100.00;101834.53;5030476;28;20935;-84
2023/08/23 02:41:50;;;;;;;9.60;3.70;;;;;;;13.65;100.00;101834.63;5022982;28;20042;-84
2023/08/23 02:44:16;;;;;;;15.77;4.53;;;;;;;13.64;100.00;101824.78;5023640;28;20028;-84
2023/08/23 02:46:41;;;;;;;13.55;4.05;;;;;;;13.60;100.00;101832.25;5030096;28;20041;-84
2023/08/23 02:49:06;;;;;;;12.38;4.28;;;;;;;13.58;100.00;101836.91;5027960;28;20077;-85
2023/08/23 02:51:31;;;;;;;14.60;4.30;;;;;;;13.58;100.00;101833.34;5027994;28;20039;-84
2023/08/23 02:53:57;;;;;;;12.25;4.00;;;;;;;13.59;100.00;101833.22;5023547;28;20426;-84
2023/08/23 02:56:22;;;;;;;12.10;4.22;;;;;;;13.60;100.00;101823.28;5022056;28;20022;-84
2023/08/23 02:58:47;;;;;;;10.52;3.90;;;;;;;13.58;100.00;101828.78;5025889;28;20079;-85
2023/08/23 03:01:14;;;;;;;11.63;4.05;;;;;;;13.54;100.00;101823.72;5030466;28;20428;-85
2023/08/23 03:03:39;;;;;;;12.98;4.22;;;;;;;13.49;100.00;101821.34;5022206;28;20030;-84
2023/08/23 03:06:05;;;;;;;12.75;3.47;;;;;;;13.49;100.00;101815.94;5025093;28;20029;-86
2023/08/23 03:08:30;;;;;;;12.20;4.00;;;;;;;13.45;100.00;101815.28;5030316;28;20062;-86
2023/08/23 03:11:06;;;;;;;13.10;4.32;;;;;;;13.43;100.00;101816.38;5026391;28;20049;-84
2023/08/23 03:13:32;;;;;;;12.15;3.85;;;;;;;13.36;100.00;101817.78;5025930;28;20105;-86
2023/08/23 03:15:58;;;;;;;13.95;4.47;;;;;;;13.37;100.00;101819.53;5027566;28;20059;-84
2023/08/23 03:18:23;;;;;;;14.00;4.30;;;;;;;13.35;100.00;101818.75;5028940;28;20457;-85
2023/08/23 03:20:50;;;;;;;11.88;4.28;;;;;;;13.33;100.00;101815.25;5032601;28;20127;-85
2023/08/23 03:23:19;;;;;;;12.77;3.90;;;;;;;13.29;100.00;101810.09;5049290;28;20033;-85
2023/08/23 03:25:45;;;;;;;12.32;4.10;;;;;;;13.27;100.00;101806.59;5029060;28;20566;-85
2023/08/23 03:28:12;;;;;;;14.23;4.60;;;;;;;13.28;100.00;101810.19;5028742;28;20021;-86
2023/08/23 03:30:37;;;;;;;13.25;4.15;;;;;;;13.27;100.00;101812.00;5047148;28;20025;-86
2023/08/23 03:33:03;;;;;;;15.73;5.35;;;;;;;13.23;100.00;101807.78;5025524;28;20059;-84
2023/08/23 03:35:28;;;;;;;12.18;4.05;;;;;;;13.20;100.00;101816.09;5044391;28;20064;-86
2023/08/23 03:37:53;;;;;;;13.65;4.45;;;;;;;13.18;100.00;101815.34;5027150;28;21556;-77
2023/08/23 03:40:19;;;;;;;13.18;4.57;;;;;;;13.16;100.00;101824.50;5030288;28;20496;-76
2023/08/23 03:42:44;;;;;;;13.82;4.47;;;;;;;13.18;100.00;101812.66;5047640;28;20033;-76
2023/08/23 03:45:10;;;;;;;12.90;3.92;;;;;;;13.21;100.00;101811.59;5024531;28;20807;-76
2023/08/23 03:47:35;;;;;;;10.82;4.15;;;;;;;13.23;100.00;101805.09;5032288;28;20021;-78
2023/08/23 03:50:00;;;;;;;14.20;4.68;;;;;;;13.20;100.00;101810.69;5029393;28;20131;-77
2023/08/23 03:52:26;;;;;;;13.02;4.53;;;;;;;13.21;100.00;101809.72;5030796;28;20029;-76
2023/08/23 03:54:51;;;;;;;13.23;4.38;;;;;;;13.24;100.00;101816.75;5036269;28;20029;-76
2023/08/23 03:57:16;;;;;;;12.00;4.13;;;;;;;13.23;100.00;101815.88;5032877;28;20039;-76
2023/08/23 03:59:42;;;;;;;13.48;4.07;;;;;;;13.23;100.00;101810.47;5028445;28;20028;-77
2023/08/23 04:02:07;;;;;;;12.40;4.10;;;;;;;13.25;100.00;101813.97;5045077;28;20037;-78
2023/08/23 04:04:33;;;;;;;14.50;4.43;;;;;;;13.26;100.00;101810.25;5027420;28;20083;-76
2023/08/23 04:06:58;;;;;;;13.07;4.00;;;;;;;13.27;100.00;101814.69;5043607;28;20103;-76
2023/08/23 04:09:23;;;;;;;15.30;4.20;;;;;;;13.31;100.00;101817.19;5027645;28;20028;-76
2023/08/23 04:11:49;;;;;;;13.88;4.80;;;;;;;13.29;100.00;101820.00;5034463;28;20108;-76
2023/08/23 04:14:14;;;;;;;14.25;4.88;;;;;;;13.26;100.00;101820.22;5020393;28;20074;-76
2023/08/23 04:16:39;;;;;;;12.52;4.50;;;;;;;13.22;100.00;101818.69;5026914;28;20029;-77
2023/08/23 04:19:04;;;;;;;13.95;4.93;;;;;;;13.20;100.00;101826.91;5043437;28;20029;-77
2023/08/23 04:21:30;;;;;;;12.43;4.45;;;;;;;13.19;100.00;101819.78;5043146;28;20079;-77
2023/08/23 04:23:55;;;;;;;14.63;5.00;;;;;;;13.21;100.00;101816.97;5044557;28;20362;-77
2023/08/23 04:26:20;;;;;;;13.95;4.53;;;;;;;13.17;100.00;101819.00;5025151;28;20393;-76
2023/08/23 04:28:47;;;;;;;16.00;5.72;;;;;;;13.11;100.00;101825.69;5029324;28;20123;-76
2023/08/23 04:31:12;;;;;;;14.25;4.75;;;;;;;13.08;100.00;101823.19;5026974;28;20064;-76
2023/08/23 04:33:37;;;;;;;19.23;4.90;;;;;;;13.10;100.00;101815.00;5041921;28;20104;-76
2023/08/23 04:36:04;;;;;;;15.73;5.30;;;;;;;13.11;100.00;101817.59;5045218;28;20112;-77
2023/08/23 04:38:29;;;;;;;11.23;4.18;;;;;;;13.15;100.00;101822.78;5050336;28;20483;-77
2023/08/23 04:41:03;;;;;;;14.52;4.90;;;;;;;13.18;100.00;101831.53;5033227;28;20346;-77
2023/08/23 04:43:28;;;;;;;15.98;4.90;;;;;;;13.21;100.00;101823.22;5042445;28;20064;-76
2023/08/23 04:45:54;;;;;;;15.77;5.15;;;;;;;13.22;100.00;101830.38;5041647;28;20357;-77
2023/08/23 04:48:20;;;;;;;15.43;4.35;;;;;;;13.22;100.00;101830.38;5043579;28;20036;-86
2023/08/23 04:50:50;;;;;;;13.35;4.65;;;;;;;13.24;100.00;101828.41;5030956;28;20029;-85
2023/08/23 04:53:15;;;;;;;13.73;4.65;;;;;;;13.26;100.00;101826.47;5030657;28;20387;-87
2023/08/23 04:55:41;;;;;;;14.60;4.68;;;;;;;13.27;100.00;101822.81;5050095;28;20043;-85
2023/08/23 04:58:06;;;;;;;14.95;5.07;;;;;;;13.28;100.00;101821.84;5036144;28;20206;-85
2023/08/23 05:00:32;;;;;;;16.67;5.18;;;;;;;13.31;100.00;101822.59;5027002;28;20040;-87
2023/08/23 05:02:57;;;;;;;15.45;5.18;;;;;;;13.34;100.00;101826.00;5031691;28;20501;-87
2023/08/23 05:05:22;;;;;;;15.25;5.00;;;;;;;13.36;100.00;101823.19;5034613;28;20021;-87
2023/08/23 05:07:49;;;;;;;15.00;5.45;;;;;;;13.43;100.00;101825.34;5022760;28;20503;-87
2023/08/23 05:10:15;;;;;;;12.93;5.15;;;;;;;13.52;100.00;101826.53;5024878;28;20032;-86
2023/08/23 05:12:40;;;;;;;16.98;6.10;;;;;;;13.61;100.00;101819.63;5023452;28;20025;-86
2023/08/23 05:15:06;;;;;;;16.50;5.63;;;;;;;13.68;100.00;101820.91;5039913;28;20057;-86
2023/08/23 05:17:31;;;;;;;19.85;5.93;;;;;;;13.73;100.00;101815.16;5044382;28;20052;-86
2023/08/23 05:19:56;;;;;;;16.40;5.82;;;;;;;13.78;100.00;101808.47;5046244;28;20048;-86
2023/08/23 05:22:22;;;;;;;17.40;5.65;;;;;;;13.84;100.00;101804.47;5027814;28;20071;-87
2023/08/23 05:24:47;;;;;;;19.77;6.18;;;;;;;13.89;100.00;101807.69;5039689;28;20021;-86
2023/08/23 05:27:12;;;;;;;15.32;5.43;;;;;;;13.93;100.00;101813.75;5044987;28;20052;-87
2023/08/23 05:29:38;;;;;;;18.48;5.90;;;;;;;13.96;100.00;101818.94;5024887;28;20030;-87
2023/08/23 05:32:03;;;;;;;15.60;6.35;;;;;;;13.94;100.00;101820.91;5032874;28;20083;-84
2023/08/23 05:34:28;;;;;;;16.23;5.47;;;;;;;13.91;100.00;101813.88;5033140;28;20075;-86
2023/08/23 05:36:54;;;;;;;19.67;6.10;;;;;;;13.91;100.00;101821.09;5035004;28;20037;-86
2023/08/23 05:39:19;;;;;;;21.05;6.07;;;;;;;13.90;100.00;101817.53;5031485;28;20033;-87
2023/08/23 05:41:45;;;;;;;19.45;6.05;;;;;;;13.89;100.00;101810.38;5031313;28;20381;-86
2023/08/23 05:44:10;;;;;;;19.83;6.03;;;;;;;13.91;100.00;101824.69;5047799;28;20092;-85
2023/08/23 05:46:35;;;;;;;17.25;5.80;;;;;;;13.89;100.00;101829.31;5031353;28;20032;-86
2023/08/23 05:49:01;;;;;;;19.00;5.95;;;;;;;13.87;100.00;101820.47;5032739;28;20044;-86
2023/08/23 05:51:26;;;;;;;20.58;6.43;;;;;;;13.91;100.00;101821.09;5048499;28;20056;-87
2023/08/23 05:53:51;;;;;;;14.93;5.25;;;;;;;13.93;100.00;101833.53;5035614;28;20032;-86
2023/08/23 05:56:17;;;;;;;19.40;6.32;;;;;;;13.98;100.00;101827.78;5034228;28;20110;-81
2023/08/23 05:58:42;;;;;;;18.92;6.38;;;;;;;14.05;100.00;101828.22;5031252;28;20021;-87
2023/08/23 06:01:07;;;;;;;19.15;5.30;;;;;;;14.11;100.00;101827.75;5034395;28;20025;-87
2023/08/23 06:03:33;;;;;;;21.17;6.07;;;;;;;14.17;100.00;101824.59;5051007;28;20029;-87
2023/08/23 06:05:58;;;;;;;15.15;5.43;;;;;;;14.20;100.00;101835.19;5029373;28;20028;-83
2023/08/23 06:08:23;;;;;;;19.15;6.75;;;;;;;14.25;100.00;101835.75;5026040;28;20075;-83
2023/08/23 06:10:49;;;;;;;20.58;7.00;;;;;;;14.31;100.00;101837.97;5026167;28;20048;-83
2023/08/23 06:13:15;;;;;;;20.75;7.70;;;;;;;14.36;100.00;101834.09;5041945;28;20135;-83
2023/08/23 06:15:40;;;;;;;21.98;7.00;;;;;;;14.43;100.00;101838.06;5043942;28;20534;-82
2023/08/23 06:18:06;;;;;;;17.80;7.25;;;;;;;14.48;100.00;101831.34;5031591;28;20065;-82
2023/08/23 06:20:31;;;;;;;21.15;8.35;;;;;;;14.57;100.00;101835.19;5045164;28;20049;-82
2023/08/23 06:22:58;;;;;;;20.60;8.50;;;;;;;14.64;100.00;101833.81;5044780;28;20039;-82
2023/08/23 06:25:24;;;;;;;21.50;9.00;;;;;;;14.72;100.00;101835.06;5028137;28;20059;-82
2023/08/23 06:27:49;;;;;;;20.95;8.13;;;;;;;14.80;100.00;101838.03;5042460;28;20051;-83
2023/08/23 06:30:15;;;;;;;20.27;9.18;;;;;;;14.92;100.00;101836.25;5024460;28;20223;-82
2023/08/23 06:32:46;;;;;;;20.75;9.63;;;;;;;15.01;100.00;101840.97;5050834;28;20089;-82
2023/08/23 06:35:16;;;;;;;21.42;8.93;;;;;;;15.12;100.00;101837.44;5023380;28;20532;-82
2023/08/23 06:37:42;;;;;;;20.77;10.02;;;;;;;15.24;100.00;101838.34;5029457;28;20028;-82
2023/08/23 06:40:10;;;;;;;19.05;5.72;;;;;;;15.29;100.00;101847.84;5043128;28;20388;-82
2023/08/23 06:42:36;;;;;;;21.80;9.48;;;;;;;15.41;100.00;101848.72;5041846;28;20025;-81
2023/08/23 06:45:02;;;;;;;21.08;8.55;;;;;;;15.48;100.00;101839.13;5030465;28;20032;-81
2023/08/23 06:47:28;;;;;;;15.82;6.13;;;;;;;15.53;100.00;101838.75;5026088;28;20029;-88
2023/08/23 06:49:53;;;;;;;19.85;8.70;;;;;;;15.61;100.00;101843.56;5047132;28;20147;-84
2023/08/23 06:52:19;;;;;;;17.50;6.45;;;;;;;15.66;100.00;101850.34;5032218;28;20040;-85
2023/08/23 06:54:44;;;;;;;21.33;9.48;;;;;;;15.77;100.00;101840.50;5050384;28;20040;-88
2023/08/23 06:57:09;;;;;;;15.85;5.68;;;;;;;15.75;100.00;101848.75;5052444;28;20029;-87
2023/08/23 06:59:35;;;;;;;16.30;7.13;;;;;;;15.84;100.00;101856.22;5056914;28;20029;-87
2023/08/23 07:02:00;;;;;;;15.98;4.68;;;;;;;15.83;100.00;101861.78;5061046;22;20035;-75
2023/08/23 07:04:25;;;;;;;16.40;5.35;;;;;;;15.87;100.00;101864.09;5101453;28;20028;-74
2023/08/23 07:06:51;;;;;;;16.25;5.60;;;;;;;15.91;100.00;101867.41;5100555;28;20126;-75
2023/08/23 07:09:16;;;;;;;19.02;7.50;;;;;;;16.05;100.00;101872.59;5094810;28;20035;-73
2023/08/23 07:11:41;;;;;;;15.73;6.10;;;;;;;16.07;100.00;101870.63;5101525;28;20037;-73
2023/08/23 07:14:08;;;;;;;19.83;8.25;;;;;;;16.17;100.00;101869.91;5073840;28;20497;-73
2023/08/23 07:16:34;;;;;;;15.65;5.15;;;;;;;16.16;100.00;101874.44;5096497;28;20063;-73
2023/08/23 07:19:01;;;;;;;19.50;9.13;;;;;;;16.30;100.00;101870.63;5090754;28;20016;-73
2023/08/23 07:21:27;;;;;;;14.90;4.93;;;;;;;16.30;100.00;101876.03;5072655;28;20027;-74
2023/08/23 07:23:53;;;;;;;15.27;5.63;;;;;;;16.36;100.00;101878.25;5098480;28;20024;-78
2023/08/23 07:26:18;;;;;;;15.57;5.10;;;;;;;16.41;100.00;101884.19;5088744;28;20035;-75
2023/08/23 07:28:43;;;;;;;16.13;5.38;;;;;;;16.49;100.00;101878.13;5106665;28;20032;-77
2023/08/23 07:31:09;;;;;;;16.80;6.07;;;;;;;16.56;100.00;101878.47;5083721;28;20119;-76
2023/08/23 07:33:34;;;;;;;19.98;7.18;;;;;;;16.68;100.00;101879.31;5093869;28;20030;-75
2023/08/23 07:36:01;;;;;;;16.80;5.38;;;;;;;16.70;100.00;101883.63;5088527;28;20035;-76
2023/08/23 07:38:28;;;;;;;21.88;7.68;;;;;;;16.81;100.00;101888.16;5090350;28;20024;-76
2023/08/23 07:41:02;;;;;;;12.13;4.30;;;;;;;16.87;100.00;101882.25;5094650;28;20086;-76
2023/08/23 07:43:27;;;;;;;16.08;4.95;;;;;;;16.92;100.00;101881.84;5077178;28;20033;-76
2023/08/23 07:45:57;;;;;;;19.10;6.28;;;;;;;17.02;100.00;101890.97;5077032;28;20020;-77
2023/08/23 07:48:24;;;;;;;17.77;6.13;;;;;;;17.10;100.00;101888.47;5088638;28;20028;-79
2023/08/23 07:50:55;;;;;;;22.75;8.35;;;;;;;17.16;100.00;101887.09;5091085;28;20024;-77
2023/08/23 07:53:22;;;;;;;14.95;6.35;;;;;;;17.19;100.00;101891.38;5081842;28;20476;-77
2023/08/23 07:55:47;;;;;;;18.58;6.60;;;;;;;17.24;100.00;101891.84;5088479;28;20586;-77
2023/08/23 07:58:13;;;;;;;17.60;6.90;;;;;;;17.34;100.00;101889.22;5081732;28;20031;-78
2023/08/23 08:00:39;;;;;;;18.92;7.18;;;;;;;17.37;100.00;101895.25;5089528;28;20028;-77
2023/08/23 08:03:04;;;;;;;20.50;7.88;;;;;;;17.48;100.00;101883.44;5084636;28;20440;-77
2023/08/23 08:05:30;;;;;;;20.30;8.55;;;;;;;17.59;100.00;101891.53;5087989;28;20028;-77
2023/08/23 08:07:56;;;;;;;19.92;7.90;;;;;;;17.72;100.00;101890.50;5093962;28;20039;-77
2023/08/23 08:10:21;;;;;;;19.75;7.72;;;;;;;17.83;100.00;101882.22;5086930;28;20023;-77
2023/08/23 08:12:46;;;;;;;18.65;7.43;;;;;;;17.91;100.00;101884.31;5094047;28;20035;-77
2023/08/23 08:15:12;;;;;;;19.10;6.38;;;;;;;17.91;100.00;101885.19;5098047;28;20031;-77
2023/08/23 08:17:37;;;;;;;10.93;4.50;;;;;;;17.94;100.00;101881.34;5080258;28;20545;-77
2023/08/23 08:20:05;;;;;;;18.83;7.47;;;;;;;18.03;100.00;101898.69;5100027;28;20051;-77
2023/08/23 08:22:31;;;;;;;11.40;3.85;;;;;;;18.03;100.00;101887.81;5084734;28;20459;-77
2023/08/23 08:24:57;;;;;;;19.50;7.57;;;;;;;18.12;100.00;101890.56;5090614;28;20063;-77
2023/08/23 08:27:23;;;;;;;15.85;5.72;;;;;;;18.15;100.00;101898.44;5076198;28;20034;-77
2023/08/23 08:29:48;;;;;;;14.20;4.45;;;;;;;18.22;100.00;101895.19;5107165;28;20055;-73
2023/08/23 08:32:14;;;;;;;18.27;7.03;;;;;;;18.27;100.00;101891.06;5105440;28;20020;-72
2023/08/23 08:34:39;;;;;;;16.48;6.32;;;;;;;18.34;100.00;101881.31;5118318;28;20024;-72
2023/08/23 08:37:06;;;;;;;21.75;6.60;;;;;;;18.45;100.00;101888.53;5104740;28;20035;-72
2023/08/23 08:39:31;;;;;;;17.88;6.97;;;;;;;18.55;100.00;101880.41;5111996;28;20059;-73
2023/08/23 08:41:56;;;;;;;16.92;5.32;;;;;;;18.56;100.00;101875.81;5102155;28;20063;-74
2023/08/23 08:44:23;;;;;;;17.45;5.80;;;;;;;18.67;100.00;101876.56;5119304;28;20016;-72
2023/08/23 08:46:48;;;;;;;15.27;5.05;;;;;;;18.65;100.00;101878.56;5112064;28;20406;-73
2023/08/23 08:49:13;;;;;;;13.80;3.75;;;;;;;18.64;100.00;101876.00;5118000;28;20034;-73
2023/08/23 08:51:45;;;;;;;17.60;6.15;;;;;;;18.74;98.56;101886.88;5103828;28;20800;-74
2023/08/23 08:54:11;;;;;;;14.88;5.22;;;;;;;18.78;98.33;101883.72;5109159;28;20051;-73
2023/08/23 08:56:37;;;;;;;14.43;4.85;;;;;;;18.85;97.39;101881.31;5120510;28;20031;-74
2023/08/23 08:59:03;;;;;;;18.50;4.93;;;;;;;18.91;98.05;101871.75;5115348;28;20032;-74
2023/08/23 09:01:34;;;;;;;12.25;3.58;;;;;;;18.94;99.47;101880.47;5123455;28;20023;-73
2023/08/23 09:04:00;;;;;;;18.95;4.22;;;;;;;18.96;97.97;101880.34;5100633;28;20079;-74
2023/08/23 09:06:27;;;;;;;15.85;4.78;;;;;;;19.05;93.20;101887.69;5110796;28;20031;-75
2023/08/23 09:08:53;;;;;;;15.95;5.32;;;;;;;19.10;95.53;101882.66;5090991;28;20083;-75
2023/08/23 09:11:19;;;;;;;16.90;4.78;;;;;;;19.21;94.00;101885.22;5118811;28;20034;-74
2023/08/23 09:13:44;;;;;;;18.10;5.40;;;;;;;19.29;91.90;101886.38;5102507;28;20079;-73
2023/08/23 09:16:12;;;;;;;13.27;4.60;;;;;;;19.35;90.92;101883.06;5100892;28;20025;-73
2023/08/23 09:18:43;;;;;;;14.05;4.80;;;;;;;19.39;92.72;101881.78;5115235;28;20057;-73
2023/08/23 09:21:10;;;;;;;16.40;5.70;;;;;;;19.46;94.42;101884.75;5104528;28;20072;-72
2023/08/23 09:23:35;;;;;;;22.25;5.32;;;;;;;19.49;94.43;101885.34;5116483;28;20075;-74
2023/08/23 09:26:00;;;;;;;19.75;6.63;;;;;;;19.52;91.18;101889.66;5123056;28;20019;-73
2023/08/23 09:28:28;;;;;;;17.05;6.80;;;;;;;19.59;92.16;101881.75;5099451;28;20094;-74
2023/08/23 09:30:54;;;;;;;16.02;4.63;;;;;;;19.62;93.93;101892.34;5098434;28;20054;-72
2023/08/23 09:33:20;;;;;;;16.23;4.90;;;;;;;19.68;95.75;101897.25;5099036;28;20187;-73
2023/08/23 09:35:48;;;;;;;19.75;7.32;;;;;;;19.74;93.69;101892.03;5113440;28;20063;-73
2023/08/23 09:38:21;;;;;;;19.98;7.80;;;;;;;19.84;93.57;101894.78;5110020;28;20034;-74
2023/08/23 09:40:47;;;;;;;17.17;6.60;;;;;;;19.95;94.34;101895.63;5120727;28;20031;-73
2023/08/23 09:43:14;;;;;;;18.52;6.80;;;;;;;20.01;92.10;101900.47;5116117;28;20035;-73
2023/08/23 09:45:40;;;;;;;17.00;5.60;;;;;;;20.00;91.57;101885.09;5115637;28;20129;-72
2023/08/23 09:48:06;;;;;;;20.17;7.88;;;;;;;20.05;90.59;101880.91;5098488;28;20039;-73
2023/08/23 09:50:32;;;;;;;16.10;5.53;;;;;;;20.06;91.85;101885.38;5108847;28;20052;-73
2023/08/23 09:53:06;;;;;;;17.90;6.57;;;;;;;20.16;91.19;101895.38;5112890;28;20112;-72
2023/08/23 09:55:32;;;;;;;22.48;8.20;;;;;;;20.18;89.83;101893.38;5106676;28;20028;-73
2023/08/23 09:57:59;;;;;;;13.25;5.32;;;;;;;20.19;90.52;101889.63;5119816;28;20045;-73
2023/08/23 10:00:25;;;;;;;20.50;7.90;;;;;;;20.26;90.43;101890.72;5115897;28;20011;-74
2023/08/23 10:02:53;;;;;;;15.52;5.22;;;;;;;20.27;89.30;101892.47;5112548;28;20108;-72
2023/08/23 10:05:19;;;;;;;15.38;5.28;;;;;;;20.29;90.08;101889.59;5105617;28;20038;-73
2023/08/23 10:07:44;;;;;;;12.55;3.70;;;;;;;20.27;91.87;101891.63;5105128;28;20039;-74
2023/08/23 10:10:10;;;;;;;26.48;8.43;;;;;;;20.30;88.97;101888.56;5113707;28;20057;-74
2023/08/23 10:12:40;;;;;;;22.67;8.25;;;;;;;20.37;89.64;101889.69;5115199;28;20016;-73
2023/08/23 10:15:08;;;;;;;19.10;6.32;;;;;;;20.40;88.21;101886.66;5094129;28;20024;-75
2023/08/23 10:17:35;;;;;;;16.98;6.22;;;;;;;20.48;88.25;101889.47;5106688;28;20016;-73
2023/08/23 10:20:22;;;;;;;19.38;5.60;;;;;;;20.49;90.80;101884.88;5110494;28;20032;-73
2023/08/23 10:22:47;;;;;;;11.82;4.38;;;;;;;20.48;88.40;101894.94;5115842;28;20032;-74
2023/08/23 10:25:16;;;;;;;21.60;7.85;;;;;;;20.61;86.82;101894.56;5116466;28;20088;-73
2023/08/23 10:27:46;;;;;;;20.45;7.22;;;;;;;20.68;86.41;101882.06;5123501;28;20023;-73
2023/08/23 10:30:25;;;;;;;16.25;5.80;;;;;;;20.71;85.75;101886.34;5119839;28;20034;-74
2023/08/23 10:32:52;;;;;;;20.52;7.20;;;;;;;20.87;85.08;101883.78;5116262;28;20034;-76
2023/08/23 10:35:37;;;;;;;15.68;4.78;;;;;;;20.92;85.11;101881.47;5103686;28;20051;-72
2023/08/23 10:38:05;;;;;;;19.92;8.55;;;;;;;21.00;80.98;101890.75;5105085;28;20028;-74
2023/08/23 10:40:31;;;;;;;24.75;7.78;;;;;;;21.09;82.98;101884.34;5095377;28;20028;-73
2023/08/23 10:42:57;;;;;;;19.80;7.47;;;;;;;21.12;82.78;101876.69;5114578;28;20083;-74
2023/08/23 10:45:22;;;;;;;19.83;8.25;;;;;;;21.15;80.23;101869.19;5096153;28;20031;-75
2023/08/23 10:47:51;;;;;;;16.70;6.57;;;;;;;21.17;77.33;101876.22;5105155;28;20016;-76
2023/08/23 10:50:18;;;;;;;18.10;6.97;;;;;;;21.21;77.75;101874.88;5120410;28;20047;-77
2023/08/23 10:52:44;;;;;;;16.35;6.72;;;;;;;21.25;78.34;101865.34;5103348;28;20051;-77
2023/08/23 10:55:09;;;;;;;16.90;6.63;;;;;;;21.27;78.29;101874.28;5094442;28;20185;-78
2023/08/23 10:57:35;;;;;;;17.85;7.00;;;;;;;21.26;76.72;101867.06;5065277;28;20024;-78
2023/08/23 11:00:00;;;;;;;14.90;5.72;;;;;;;21.25;78.20;101859.03;5085791;28;20028;-75
2023/08/23 11:02:25;;;;;;;16.55;5.70;;;;;;;21.32;78.77;101857.38;5106651;28;20071;-75
2023/08/23 11:04:51;;;;;;;21.05;6.72;;;;;;;21.38;77.64;101848.53;5104897;28;20020;-74
2023/08/23 11:07:17;;;;;;;15.90;5.32;;;;;;;21.41;79.65;101840.00;5100353;28;20008;-76
2023/08/23 11:09:43;;;;;;;12.18;3.85;;;;;;;21.38;79.46;101842.22;5101203;28;20023;-76